Time;durP1;ratioP1;P1;durP2;ratioP2;P2;SDS_P1;SDS_P2;PMS_P1;PMS_P2;Temp;Humidity;BMP_temperature;BMP_pressure;BME280_temperature;BME280_humidity;BME280_pressure;Samples;Min_cycle;Max_cycle;Signal;HPM_P1;HPM_P2
2022/09/09 00:01:40;;;;;;;;;;;21.90;67.80;;;;;;5032270;28;887;-67
2022/09/09 00:04:20;;;;;;;;;;;21.90;67.80;;;;;;5014150;28;2149;-68
2022/09/09 00:06:48;;;;;;;;;;;21.90;67.80;;;;;;5030461;28;1272;-68
2022/09/09 00:09:17;;;;;;;;;;;21.90;67.80;;;;;;5031988;28;1957;-68
2022/09/09 00:11:48;;;;;;;;;;;21.90;67.80;;;;;;5032706;28;1208;-68
2022/09/09 00:14:17;;;;;;;;;;;21.90;67.80;;;;;;5028702;28;1316;-67
2022/09/09 00:16:44;;;;;;;;;;;21.90;67.80;;;;;;5032242;28;1315;-68
2022/09/09 00:19:33;;;;;;;;;;;21.90;67.80;;;;;;5029536;28;1890;-66
2022/09/09 00:21:58;;;;;;;;;;;21.90;67.80;;;;;;5022746;28;1266;-66
2022/09/09 00:24:43;;;;;;;;;;;21.90;67.80;;;;;;5031259;28;1296;-69
2022/09/09 00:27:12;;;;;;;;;;;21.90;67.80;;;;;;5031351;28;1419;-68
2022/09/09 00:29:37;;;;;;;;;;;21.90;67.80;;;;;;5031040;28;1957;-66
2022/09/09 00:32:12;;;;;;;;;;;21.90;67.80;;;;;;5025963;28;1641;-69
2022/09/09 00:34:46;;;;;;;;;;;21.90;67.80;;;;;;5029504;28;1268;-69
2022/09/09 00:37:11;;;;;;;;;;;21.90;67.80;;;;;;5012814;28;1190;-67
2022/09/09 00:39:37;;;;;;;;;;;21.90;67.80;;;;;;5014497;28;1352;-68
2022/09/09 00:42:26;;;;;;;;;;;21.90;67.70;;;;;;5020693;28;1255;-68
2022/09/09 00:45:02;;;;;;;;;;;21.90;67.80;;;;;;5028357;28;1255;-68
2022/09/09 00:47:30;;;;;;;;;;;21.90;67.80;;;;;;5020674;28;1297;-68
2022/09/09 00:50:14;;;;;;;;;;;21.90;67.80;;;;;;5032795;28;1937;-68
2022/09/09 00:52:40;;;;;;;;;;;21.90;67.80;;;;;;5030942;28;1204;-68
2022/09/09 00:55:09;;;;;;;;;;;21.90;67.80;;;;;;5014540;28;1394;-69
2022/09/09 00:57:35;;;;;;;;;;;21.90;67.80;;;;;;5032370;28;1137;-69
2022/09/09 01:00:03;;;;;;;;;;;21.90;67.80;;;;;;5031264;28;1114;-68
2022/09/09 01:02:35;;;;;;;;;;;21.90;67.80;;;;;;5032200;28;1236;-68
2022/09/09 01:05:17;;;;;;;;;;;21.90;67.80;;;;;;5020214;28;1386;-68
2022/09/09 01:07:44;;;;;;;;;;;21.90;67.80;;;;;;5031401;28;1162;-68
2022/09/09 01:10:12;;;;;;;;;;;21.90;67.80;;;;;;5030729;28;1914;-68
2022/09/09 01:12:38;;;;;;;;;;;21.90;67.80;;;;;;5031519;28;999;-67
2022/09/09 01:15:16;;;;;;;;;;;21.90;67.80;;;;;;5031100;28;1304;-69
2022/09/09 01:18:01;;;;;;;;;;;21.90;67.80;;;;;;5031314;28;1252;-67
2022/09/09 01:20:30;;;;;;;;;;;21.90;67.80;;;;;;5020407;28;1249;-69
2022/09/09 01:23:14;;;;;;;;;;;21.90;67.90;;;;;;5021106;28;1395;-68
2022/09/09 01:25:58;;;;;;;;;;;21.90;67.90;;;;;;5030999;28;1158;-69
2022/09/09 01:28:25;;;;;;;;;;;21.90;67.90;;;;;;5031790;28;1343;-69
2022/09/09 01:30:50;;;;;;;;;;;21.90;67.90;;;;;;5031098;28;1898;-69
2022/09/09 01:33:16;;;;;;;;;;;21.90;68.00;;;;;;5032452;28;1338;-68
2022/09/09 01:35:42;;;;;;;;;;;21.90;68.00;;;;;;5031191;28;1216;-69
2022/09/09 01:38:07;;;;;;;;;;;21.90;67.90;;;;;;5031750;28;1168;-68
2022/09/09 01:40:32;;;;;;;;;;;21.90;67.90;;;;;;5014230;28;1153;-68
2022/09/09 01:42:58;;;;;;;;;;;21.90;67.90;;;;;;5032357;28;1223;-68
2022/09/09 01:45:23;;;;;;;;;;;21.90;67.90;;;;;;5031344;28;871;-69
2022/09/09 01:47:49;;;;;;;;;;;21.90;67.90;;;;;;5032475;28;803;-68
2022/09/09 01:50:14;;;;;;;;;;;21.90;67.90;;;;;;5050455;28;1897;-68
2022/09/09 01:52:40;;;;;;;;;;;21.90;68.00;;;;;;5052158;28;1057;-69
2022/09/09 01:55:06;;;;;;;;;;;21.90;68.00;;;;;;5050883;28;1209;-68
2022/09/09 01:57:33;;;;;;;;;;;21.90;68.70;;;;;;5051174;28;804;-69
2022/09/09 01:59:58;;;;;;;;;;;21.90;67.90;;;;;;5050302;28;1021;-69
2022/09/09 02:02:26;;;;;;;;;;;21.90;67.90;;;;;;5052571;28;954;-69
2022/09/09 02:04:52;;;;;;;;;;;21.90;68.00;;;;;;5051061;28;1228;-69
2022/09/09 02:07:30;;;;;;;;;;;21.90;68.00;;;;;;5052122;28;875;-69
2022/09/09 02:10:04;;;;;;;;;;;21.90;67.90;;;;;;5051942;28;1906;-69
2022/09/09 02:12:29;;;;;;;;;;;21.90;68.00;;;;;;5050901;28;930;-68
2022/09/09 02:14:56;;;;;;;;;;;21.90;68.00;;;;;;5052051;28;1233;-69
2022/09/09 02:17:24;;;;;;;;;;;21.90;68.00;;;;;;5053959;28;788;-68
2022/09/09 02:19:52;;;;;;;;;;;21.90;68.00;;;;;;5054770;28;945;-67
2022/09/09 02:22:17;;;;;;;;;;;21.90;68.00;;;;;;5054780;28;939;-68
2022/09/09 02:24:43;;;;;;;;;;;21.90;68.00;;;;;;5054715;28;1292;-68
2022/09/09 02:27:08;;;;;;;;;;;21.90;68.00;;;;;;5048191;28;1187;-68
2022/09/09 02:29:35;;;;;;;;;;;21.90;68.00;;;;;;5033918;28;1951;-68
2022/09/09 02:32:02;;;;;;;;;;;21.90;68.00;;;;;;5017871;28;1141;-67
2022/09/09 02:34:28;;;;;;;;;;;21.90;68.00;;;;;;5034079;28;1331;-68
2022/09/09 02:36:53;;;;;;;;;;;21.90;68.00;;;;;;5034451;28;898;-68
2022/09/09 02:39:19;;;;;;;;;;;21.90;68.10;;;;;;5033891;28;880;-68
2022/09/09 02:41:44;;;;;;;;;;;21.90;68.00;;;;;;5034744;28;867;-67
2022/09/09 02:44:16;;;;;;;;;;;21.90;68.00;;;;;;5034342;28;1232;-68
2022/09/09 02:46:56;;;;;;;;;;;21.90;68.10;;;;;;5034127;28;890;-67
2022/09/09 02:49:32;;;;;;;;;;;21.90;68.00;;;;;;5033420;28;1901;-68
2022/09/09 02:52:00;;;;;;;;;;;21.90;68.00;;;;;;5033049;28;890;-67
2022/09/09 02:54:26;;;;;;;;;;;21.90;68.00;;;;;;5033048;28;2285;-67
2022/09/09 02:56:54;;;;;;;;;;;21.90;68.00;;;;;;5031220;28;1516;-67
2022/09/09 02:59:20;;;;;;;;;;;21.90;68.00;;;;;;5026986;28;1296;-67
2022/09/09 03:01:45;;;;;;;;;;;21.90;68.00;;;;;;5034292;28;1590;-68
2022/09/09 03:04:10;;;;;;;;;;;21.90;68.00;;;;;;5052865;22;3624;-67
2022/09/09 03:06:36;;;;;;;;;;;21.90;68.10;;;;;;5011597;28;2041;-68
2022/09/09 03:09:02;;;;;;;;;;;21.90;68.00;;;;;;5010823;28;1401;-67
2022/09/09 03:11:28;;;;;;;;;;;21.90;68.00;;;;;;4994673;28;1906;-68
2022/09/09 03:13:55;;;;;;;;;;;21.90;68.10;;;;;;4994596;28;1196;-67
2022/09/09 03:16:24;;;;;;;;;;;21.90;68.10;;;;;;4995931;28;1060;-66
2022/09/09 03:18:49;;;;;;;;;;;21.90;68.10;;;;;;4995551;28;843;-66
2022/09/09 03:21:15;;;;;;;;;;;21.90;68.00;;;;;;4995529;28;882;-66
2022/09/09 03:23:40;;;;;;;;;;;21.90;68.10;;;;;;4994347;28;1208;-66
2022/09/09 03:26:06;;;;;;;;;;;21.90;68.10;;;;;;5011509;28;958;-67
2022/09/09 03:28:31;;;;;;;;;;;21.90;68.10;;;;;;5018311;28;1136;-67
2022/09/09 03:31:03;;;;;;;;;;;21.90;68.10;;;;;;4997622;28;1895;-67
2022/09/09 03:33:29;;;;;;;;;;;21.90;68.10;;;;;;5014244;28;884;-67
2022/09/09 03:35:56;;;;;;;;;;;21.90;68.00;;;;;;5013688;28;1299;-67
2022/09/09 03:38:24;;;;;;;;;;;21.90;68.00;;;;;;5013536;28;1370;-67
2022/09/09 03:40:55;;;;;;;;;;;21.90;68.10;;;;;;5014808;28;1097;-67
2022/09/09 03:43:24;;;;;;;;;;;21.90;68.10;;;;;;5014874;28;839;-67
2022/09/09 03:45:49;;;;;;;;;;;21.90;68.10;;;;;;5014555;28;1228;-67
2022/09/09 03:48:18;;;;;;;;;;;21.90;68.10;;;;;;4996842;28;1240;-67
2022/09/09 03:50:47;;;;;;;;;;;21.90;68.10;;;;;;5014751;28;1965;-67
2022/09/09 03:53:12;;;;;;;;;;;21.90;68.10;;;;;;4997248;28;827;-67
2022/09/09 03:55:38;;;;;;;;;;;21.90;68.10;;;;;;4997164;28;1394;-68
2022/09/09 03:58:03;;;;;;;;;;;21.90;68.10;;;;;;5014536;28;1197;-66
2022/09/09 04:00:30;;;;;;;;;;;21.90;68.10;;;;;;5014648;28;843;-66
2022/09/09 04:02:57;;;;;;;;;;;21.90;68.10;;;;;;5013585;28;1390;-66
2022/09/09 04:05:23;;;;;;;;;;;21.90;68.10;;;;;;5014776;28;1223;-66
2022/09/09 04:07:48;;;;;;;;;;;21.90;68.10;;;;;;5013652;28;1113;-66
2022/09/09 04:10:15;;;;;;;;;;;21.90;68.10;;;;;;5014391;28;1906;-67
2022/09/09 04:12:40;;;;;;;;;;;21.90;68.10;;;;;;5014630;28;847;-67
2022/09/09 04:15:06;;;;;;;;;;;21.90;68.10;;;;;;5013153;28;1300;-67
2022/09/09 04:17:32;;;;;;;;;;;21.90;68.20;;;;;;5014315;28;859;-67
2022/09/09 04:19:58;;;;;;;;;;;21.90;68.10;;;;;;5013903;28;1179;-67
2022/09/09 04:22:23;;;;;;;;;;;21.90;68.10;;;;;;5013312;28;804;-67
2022/09/09 04:24:49;;;;;;;;;;;21.90;68.10;;;;;;5014130;28;1282;-67
2022/09/09 04:27:14;;;;;;;;;;;21.90;68.20;;;;;;5014313;28;1085;-67
2022/09/09 04:29:39;;;;;;;;;;;21.90;68.20;;;;;;4980036;28;1899;-68
2022/09/09 04:32:05;;;;;;;;;;;21.90;68.20;;;;;;5014030;28;1113;-68
2022/09/09 04:34:31;;;;;;;;;;;21.90;68.20;;;;;;5014206;28;1217;-68
2022/09/09 04:36:56;;;;;;;;;;;21.90;68.20;;;;;;5012784;28;776;-68
2022/09/09 04:39:22;;;;;;;;;;;21.90;68.20;;;;;;4995484;28;1185;-66
2022/09/09 04:41:48;;;;;;;;;;;21.90;68.20;;;;;;5012829;28;1002;-68
2022/09/09 04:44:13;;;;;;;;;;;21.90;68.20;;;;;;5013299;28;1198;-68
2022/09/09 04:46:41;;;;;;;;;;;21.90;68.10;;;;;;5014122;28;856;-68
2022/09/09 04:49:06;;;;;;;;;;;21.90;68.10;;;;;;5013669;28;1112;-66
2022/09/09 04:51:31;;;;;;;;;;;21.90;68.10;;;;;;5014057;28;2060;-67
2022/09/09 04:53:57;;;;;;;;;;;21.90;68.10;;;;;;5014033;28;1207;-67
2022/09/09 04:56:22;;;;;;;;;;;21.90;68.10;;;;;;5014127;28;1090;-67
2022/09/09 04:58:48;;;;;;;;;;;21.90;68.10;;;;;;4996304;28;1018;-67
2022/09/09 05:01:17;;;;;;;;;;;21.90;68.10;;;;;;5013791;28;788;-67
2022/09/09 05:03:45;;;;;;;;;;;21.90;68.20;;;;;;4996414;28;1205;-67
2022/09/09 05:06:11;;;;;;;;;;;21.90;68.20;;;;;;4996833;28;961;-67
2022/09/09 05:08:37;;;;;;;;;;;21.90;68.20;;;;;;5013565;28;848;-67
2022/09/09 05:11:02;;;;;;;;;;;21.90;68.10;;;;;;4992879;28;1914;-66
2022/09/09 05:13:28;;;;;;;;;;;21.90;68.20;;;;;;4975068;28;2187;-68
2022/09/09 05:15:54;;;;;;;;;;;21.90;68.20;;;;;;5012462;28;1474;-68
2022/09/09 05:18:19;;;;;;;;;;;21.90;68.20;;;;;;5012942;28;1144;-68
2022/09/09 05:20:45;;;;;;;;;;;21.90;68.20;;;;;;5013089;28;855;-69
2022/09/09 05:23:13;;;;;;;;;;;21.90;68.20;;;;;;5013794;28;938;-69
2022/09/09 05:25:40;;;;;;;;;;;21.90;68.20;;;;;;5013309;28;1284;-69
2022/09/09 05:28:07;;;;;;;;;;;21.90;68.20;;;;;;5019209;28;1232;-69
2022/09/09 05:30:32;;;;;;;;;;;21.90;68.20;;;;;;4993128;28;1903;-68
2022/09/09 05:32:58;;;;;;;;;;;21.80;68.20;;;;;;5010828;28;1345;-68
2022/09/09 05:35:23;;;;;;;;;;;21.90;68.20;;;;;;5013024;28;1176;-68
2022/09/09 05:37:48;;;;;;;;;;;21.90;68.20;;;;;;5012241;28;1319;-68
2022/09/09 05:40:14;;;;;;;;;;;21.90;68.20;;;;;;5012898;28;860;-69
2022/09/09 05:42:40;;;;;;;;;;;21.90;68.20;;;;;;5011276;28;953;-68
2022/09/09 05:45:07;;;;;;;;;;;21.80;68.20;;;;;;5012264;28;1285;-69
2022/09/09 05:47:33;;;;;;;;;;;21.90;68.30;;;;;;5012651;28;2152;-71
2022/09/09 05:49:58;;;;;;;;;;;21.90;68.30;;;;;;5010537;28;1914;-72
2022/09/09 05:52:25;;;;;;;;;;;21.90;68.30;;;;;;5015829;28;1088;-68
2022/09/09 05:54:51;;;;;;;;;;;21.90;68.30;;;;;;5015623;28;1939;-69
2022/09/09 05:57:16;;;;;;;;;;;21.80;68.20;;;;;;5016433;28;1401;-69
2022/09/09 05:59:42;;;;;;;;;;;21.90;68.30;;;;;;5015456;28;1166;-68
2022/09/09 06:02:08;;;;;;;;;;;21.90;68.20;;;;;;5016092;28;1046;-69
2022/09/09 06:04:33;;;;;;;;;;;21.90;68.20;;;;;;5015883;28;1211;-68
2022/09/09 06:06:59;;;;;;;;;;;21.90;68.20;;;;;;5015886;28;1029;-69
2022/09/09 06:09:25;;;;;;;;;;;21.90;68.20;;;;;;5015756;28;1973;-69
2022/09/09 06:11:50;;;;;;;;;;;21.90;68.20;;;;;;5015948;28;828;-68
2022/09/09 06:14:17;;;;;;;;;;;21.90;68.20;;;;;;5015381;28;1290;-68
2022/09/09 06:16:43;;;;;;;;;;;21.90;68.30;;;;;;5015878;28;879;-68
2022/09/09 06:19:09;;;;;;;;;;;21.90;68.20;;;;;;5014581;28;1006;-68
2022/09/09 06:21:36;;;;;;;;;;;21.90;68.30;;;;;;5015590;28;851;-69
2022/09/09 06:24:02;;;;;;;;;;;21.90;68.30;;;;;;5015720;28;1223;-66
2022/09/09 06:26:31;;;;;;;;;;;21.90;68.30;;;;;;5015411;28;1184;-66
2022/09/09 06:28:57;;;;;;;;;;;21.90;68.30;;;;;;5015167;28;1018;-65
2022/09/09 06:31:24;;;;;;;;;;;21.90;68.30;;;;;;5016023;28;1960;-66
2022/09/09 06:33:50;;;;;;;;;;;21.90;68.30;;;;;;4998623;28;1695;-66
2022/09/09 06:36:19;;;;;;;;;;;21.80;68.30;;;;;;5015581;28;844;-66
2022/09/09 06:38:44;;;;;;;;;;;21.90;68.30;;;;;;5016011;28;966;-66
2022/09/09 06:41:10;;;;;;;;;;;21.90;68.30;;;;;;5016184;28;855;-66
2022/09/09 06:43:36;;;;;;;;;;;21.90;68.30;;;;;;5016404;28;808;-66
2022/09/09 06:46:03;;;;;;;;;;;21.90;68.30;;;;;;5016657;28;1200;-66
2022/09/09 06:48:29;;;;;;;;;;;21.90;68.30;;;;;;5015885;28;1120;-66
2022/09/09 06:51:23;;;;;;;;;;;21.90;68.30;;;;;;4998726;28;1972;-66
2022/09/09 06:53:49;;;;;;;;;;;21.90;68.40;;;;;;5002768;28;1290;-67
2022/09/09 06:56:24;;;;;;;;;;;21.90;68.40;;;;;;4999353;28;998;-68
2022/09/09 06:58:50;;;;;;;;;;;21.80;68.30;;;;;;5016388;28;851;-68
2022/09/09 07:01:19;;;;;;;;;;;21.90;68.40;;;;;;5016021;28;910;-68
2022/09/09 07:03:45;;;;;;;;;;;21.90;68.40;;;;;;5014752;28;1192;-69
2022/09/09 07:06:26;;;;;;;;;;;21.90;68.40;;;;;;5015576;28;949;-68
2022/09/09 07:08:52;;;;;;;;;;;21.90;68.40;;;;;;4998320;28;843;-69
2022/09/09 07:11:18;;;;;;;;;;;21.90;68.40;;;;;;5015945;28;1967;-68
2022/09/09 07:13:43;;;;;;;;;;;21.90;68.40;;;;;;5015351;28;1273;-69
2022/09/09 07:16:09;;;;;;;;;;;21.90;68.40;;;;;;5015575;28;695;-66
2022/09/09 07:18:35;;;;;;;;;;;21.90;68.40;;;;;;5015014;28;815;-66
2022/09/09 07:21:00;;;;;;;;;;;21.80;68.30;;;;;;5015849;28;887;-66
2022/09/09 07:23:26;;;;;;;;;;;21.90;68.40;;;;;;4997807;28;895;-66
2022/09/09 07:25:52;;;;;;;;;;;21.90;68.40;;;;;;5015255;28;1169;-66
2022/09/09 07:28:18;;;;;;;;;;;21.90;68.40;;;;;;5014865;28;1191;-66
2022/09/09 07:30:45;;;;;;;;;;;21.90;68.40;;;;;;5015014;28;1958;-66
2022/09/09 07:33:10;;;;;;;;;;;21.90;68.40;;;;;;4997206;28;1351;-67
2022/09/09 07:35:36;;;;;;;;;;;21.80;68.30;;;;;;5014983;28;1283;-67
2022/09/09 07:38:03;;;;;;;;;;;21.90;68.40;;;;;;5015117;28;871;-68
2022/09/09 07:40:28;;;;;;;;;;;21.90;68.40;;;;;;4997577;28;820;-67
2022/09/09 07:42:54;;;;;;;;;;;21.90;68.40;;;;;;5014942;28;882;-67
2022/09/09 07:45:19;;;;;;;;;;;21.90;68.40;;;;;;5013401;28;2030;-67
2022/09/09 07:47:45;;;;;;;;;;;21.90;68.40;;;;;;4997190;28;999;-67
2022/09/09 07:50:11;;;;;;;;;;;21.80;68.40;;;;;;5033408;28;1964;-67
2022/09/09 07:52:36;;;;;;;;;;;21.80;68.40;;;;;;5034539;28;899;-67
2022/09/09 07:55:02;;;;;;;;;;;21.90;68.50;;;;;;5034482;28;1218;-67
2022/09/09 07:57:30;;;;;;;;;;;21.90;68.50;;;;;;5034494;28;827;-67
2022/09/09 07:59:56;;;;;;;;;;;21.80;68.40;;;;;;5033380;28;910;-67
2022/09/09 08:02:21;;;;;;;;;;;21.90;68.50;;;;;;5034489;28;870;-68
2022/09/09 08:04:47;;;;;;;;;;;21.90;68.50;;;;;;5034220;28;1204;-68
2022/09/09 08:07:13;;;;;;;;;;;21.90;68.50;;;;;;5034499;28;792;-67
2022/09/09 08:09:38;;;;;;;;;;;21.90;68.50;;;;;;5034159;28;1906;-67
2022/09/09 08:12:05;;;;;;;;;;;21.90;68.50;;;;;;5034311;28;907;-67
2022/09/09 08:14:30;;;;;;;;;;;21.90;68.50;;;;;;5034265;28;1288;-67
2022/09/09 08:16:57;;;;;;;;;;;21.90;68.50;;;;;;5033864;28;820;-67
2022/09/09 08:19:23;;;;;;;;;;;21.90;68.50;;;;;;5032811;28;816;-68
2022/09/09 08:21:48;;;;;;;;;;;21.90;68.50;;;;;;5033878;28;840;-68
2022/09/09 08:24:15;;;;;;;;;;;21.90;68.50;;;;;;5032389;28;1298;-67
2022/09/09 08:26:41;;;;;;;;;;;21.90;68.50;;;;;;5030461;28;1198;-67
2022/09/09 08:29:07;;;;;;;;;;;21.90;68.60;;;;;;4996070;28;833;-67
2022/09/09 08:31:37;;;;;;;;;;;21.90;68.50;;;;;;5013670;28;1949;-67
2022/09/09 08:34:03;;;;;;;;;;;21.90;68.50;;;;;;4998544;28;1746;-67
2022/09/09 08:36:29;;;;;;;;;;;21.90;68.50;;;;;;5014629;28;791;-67
2022/09/09 08:38:55;;;;;;;;;;;21.90;68.50;;;;;;5013608;28;1043;-67
2022/09/09 08:41:30;;;;;;;;;;;21.90;68.50;;;;;;5012778;28;903;-67
2022/09/09 08:44:01;;;;;;;;;;;21.90;68.40;;;;;;4996345;28;1284;-68
2022/09/09 08:46:33;;;;;;;;;;;21.90;68.50;;;;;;4994375;28;824;-67
2022/09/09 08:49:00;;;;;;;;;;;21.90;68.50;;;;;;5010670;28;1190;-67
2022/09/09 08:51:26;;;;;;;;;;;21.90;68.40;;;;;;5032096;28;1967;-67
2022/09/09 08:53:52;;;;;;;;;;;21.90;68.40;;;;;;4993473;28;1697;-66
2022/09/09 08:56:18;;;;;;;;;;;21.90;68.40;;;;;;4992435;28;1232;-66
2022/09/09 08:58:50;;;;;;;;;;;21.90;68.40;;;;;;4990243;28;891;-66
2022/09/09 09:01:26;;;;;;;;;;;21.90;68.40;;;;;;4994113;28;1204;-66
2022/09/09 09:04:10;;;;;;;;;;;21.90;68.50;;;;;;5004418;28;1728;-66
2022/09/09 09:07:12;;;;;;;;;;;21.90;68.40;;;;;;5008604;28;1240;-67
2022/09/09 09:09:51;;;;;;;;;;;21.90;68.40;;;;;;4936006;28;2175;-67
2022/09/09 09:12:27;;;;;;;;;;;21.90;68.50;;;;;;4986968;28;1228;-67
2022/09/09 09:14:52;;;;;;;;;;;21.90;68.40;;;;;;4992997;28;1266;-68
2022/09/09 09:17:19;;;;;;;;;;;21.90;68.50;;;;;;5011511;28;946;-68
2022/09/09 09:19:45;;;;;;;;;;;21.90;68.50;;;;;;5009641;28;804;-68
2022/09/09 09:22:21;;;;;;;;;;;21.90;68.50;;;;;;5009972;28;1228;-68
2022/09/09 09:24:53;;;;;;;;;;;21.90;68.50;;;;;;5010245;28;1852;-68
2022/09/09 09:27:25;;;;;;;;;;;21.90;68.50;;;;;;5002064;28;1085;-68
2022/09/09 09:29:50;;;;;;;;;;;21.90;68.40;;;;;;5010224;28;1902;-67
2022/09/09 09:32:16;;;;;;;;;;;21.90;68.50;;;;;;5052160;22;3667;-70
2022/09/09 09:34:42;;;;;;;;;;;21.90;68.50;;;;;;5034314;28;1287;-70
2022/09/09 09:37:19;;;;;;;;;;;21.90;68.50;;;;;;5034373;28;1157;-69
2022/09/09 09:39:44;;;;;;;;;;;21.90;68.40;;;;;;5016632;28;1299;-68
2022/09/09 09:42:13;;;;;;;;;;;21.90;68.50;;;;;;5018842;28;1332;-68
2022/09/09 09:44:39;;;;;;;;;;;21.90;68.50;;;;;;5014997;28;1209;-69
2022/09/09 09:47:08;;;;;;;;;;;21.90;68.50;;;;;;5014515;28;1269;-69
2022/09/09 09:49:34;;;;;;;;;;;21.90;68.50;;;;;;5013941;28;1922;-69
2022/09/09 09:52:00;;;;;;;;;;;21.90;68.50;;;;;;5014426;28;1292;-69
2022/09/09 09:54:28;;;;;;;;;;;21.90;68.50;;;;;;5032063;28;1237;-70
2022/09/09 09:56:54;;;;;;;;;;;21.90;68.50;;;;;;5012020;28;1166;-70
2022/09/09 09:59:23;;;;;;;;;;;21.90;68.50;;;;;;5031633;28;1181;-68
2022/09/09 10:01:49;;;;;;;;;;;21.90;68.50;;;;;;5014095;28;1302;-68
2022/09/09 10:04:19;;;;;;;;;;;21.90;68.50;;;;;;5009113;28;1792;-71
2022/09/09 10:06:45;;;;;;;;;;;21.90;68.50;;;;;;5013151;28;1241;-68
2022/09/09 10:09:23;;;;;;;;;;;21.90;68.50;;;;;;5012752;28;1276;-69
2022/09/09 10:12:14;;;;;;;;;;;21.90;68.50;;;;;;5030635;28;1376;-70
2022/09/09 10:14:40;;;;;;;;;;;21.90;68.60;;;;;;5005492;28;1304;-69
2022/09/09 10:17:27;;;;;;;;;;;21.90;68.60;;;;;;5030524;28;1304;-69
2022/09/09 10:20:19;;;;;;;;;;;21.90;68.60;;;;;;5016298;28;1286;-71
2022/09/09 10:22:47;;;;;;;;;;;21.90;68.60;;;;;;5010823;28;1380;-67
2022/09/09 10:25:12;;;;;;;;;;;21.90;68.60;;;;;;5031067;28;1221;-70
2022/09/09 10:27:56;;;;;;;;;;;21.90;68.60;;;;;;5041265;28;1108;-69
2022/09/09 10:30:33;;;;;;;;;;;21.90;68.60;;;;;;5050314;28;1906;-70
2022/09/09 10:33:22;;;;;;;;;;;21.90;68.60;;;;;;5033452;28;1171;-69
2022/09/09 10:36:00;;;;;;;;;;;21.90;68.60;;;;;;5020619;28;992;-69
2022/09/09 10:38:26;;;;;;;;;;;21.90;68.60;;;;;;5014914;28;986;-69
2022/09/09 10:40:56;;;;;;;;;;;21.90;68.60;;;;;;5034099;28;1232;-69
2022/09/09 10:43:40;;;;;;;;;;;21.90;68.60;;;;;;5016805;28;1175;-69
2022/09/09 10:46:06;;;;;;;;;;;21.90;68.60;;;;;;5011195;28;1806;-70
2022/09/09 10:48:31;;;;;;;;;;;21.90;68.60;;;;;;5028646;28;2197;-69
2022/09/09 10:51:05;;;;;;;;;;;21.90;68.60;;;;;;5033380;28;1906;-70
2022/09/09 10:53:34;;;;;;;;;;;21.90;68.60;;;;;;5032984;28;2177;-68
2022/09/09 10:56:02;;;;;;;;;;;21.90;68.60;;;;;;5032464;28;1797;-69
2022/09/09 10:58:47;;;;;;;;;;;21.90;68.60;;;;;;5025521;28;1100;-69
2022/09/09 11:01:15;;;;;;;;;;;21.90;68.60;;;;;;4998666;28;1974;-69
2022/09/09 11:03:41;;;;;;;;;;;21.90;68.70;;;;;;5016081;28;1736;-70
2022/09/09 11:06:09;;;;;;;;;;;21.90;68.60;;;;;;5015833;28;1921;-69
2022/09/09 11:08:35;;;;;;;;;;;21.90;68.70;;;;;;5024038;28;1085;-69
2022/09/09 11:11:01;;;;;;;;;;;21.90;68.70;;;;;;5015707;28;1965;-69
2022/09/09 11:13:35;;;;;;;;;;;21.90;68.70;;;;;;5033589;28;1083;-70
2022/09/09 11:16:15;;;;;;;;;;;21.90;68.70;;;;;;5015963;28;1176;-69
2022/09/09 11:18:41;;;;;;;;;;;21.90;68.70;;;;;;5016426;28;1143;-68
2022/09/09 11:21:07;;;;;;;;;;;21.90;68.70;;;;;;5008408;28;1470;-68
2022/09/09 11:23:36;;;;;;;;;;;21.90;68.80;;;;;;5016800;28;1006;-69
2022/09/09 11:26:03;;;;;;;;;;;21.90;68.70;;;;;;5016932;28;878;-68
2022/09/09 11:28:29;;;;;;;;;;;21.90;68.70;;;;;;5013281;28;1088;-69
2022/09/09 11:31:01;;;;;;;;;;;21.90;68.70;;;;;;5014200;28;1907;-68
2022/09/09 11:33:45;;;;;;;;;;;21.90;68.70;;;;;;5034464;28;867;-68
2022/09/09 11:36:10;;;;;;;;;;;21.90;68.70;;;;;;5034258;28;772;-69
2022/09/09 11:38:46;;;;;;;;;;;21.90;68.80;;;;;;5033687;28;855;-69
2022/09/09 11:41:13;;;;;;;;;;;21.90;68.70;;;;;;5016312;28;1224;-68
2022/09/09 11:43:43;;;;;;;;;;;21.90;68.80;;;;;;5000247;28;1129;-69
2022/09/09 11:46:08;;;;;;;;;;;21.90;68.80;;;;;;4999907;28;1229;-69
2022/09/09 11:48:34;;;;;;;;;;;21.90;68.80;;;;;;5012460;28;1105;-69
2022/09/09 11:51:03;;;;;;;;;;;21.90;68.80;;;;;;5014000;28;1969;-68
2022/09/09 11:53:28;;;;;;;;;;;21.90;68.80;;;;;;4996920;28;851;-68
2022/09/09 11:56:04;;;;;;;;;;;21.90;68.80;;;;;;4980236;28;1113;-68
2022/09/09 11:58:32;;;;;;;;;;;21.90;68.80;;;;;;4996384;28;856;-69
2022/09/09 12:00:57;;;;;;;;;;;21.90;68.80;;;;;;5003562;28;2233;-69
2022/09/09 12:03:42;;;;;;;;;;;21.90;68.80;;;;;;5011764;28;2463;-69
2022/09/09 12:06:13;;;;;;;;;;;21.90;68.80;;;;;;5014551;28;1604;-70
2022/09/09 12:08:39;;;;;;;;;;;21.90;68.80;;;;;;5015297;28;2156;-69
2022/09/09 12:11:05;;;;;;;;;;;21.90;68.80;;;;;;5015440;28;1960;-70
2022/09/09 12:13:31;;;;;;;;;;;21.90;68.80;;;;;;5015574;28;1123;-69
2022/09/09 12:15:57;;;;;;;;;;;21.90;68.80;;;;;;5015616;28;1139;-70
2022/09/09 12:18:26;;;;;;;;;;;21.90;68.80;;;;;;4999092;28;1342;-70
2022/09/09 12:20:57;;;;;;;;;;;21.90;68.80;;;;;;5032889;28;1303;-70
2022/09/09 12:23:26;;;;;;;;;;;21.90;68.80;;;;;;5014875;28;1098;-69
2022/09/09 12:25:54;;;;;;;;;;;21.90;68.80;;;;;;5015172;28;1182;-69
2022/09/09 12:28:27;;;;;;;;;;;21.90;68.80;;;;;;5033760;28;1253;-70
2022/09/09 12:30:58;;;;;;;;;;;21.90;68.80;;;;;;5014735;28;1961;-69
2022/09/09 12:33:24;;;;;;;;;;;21.90;68.80;;;;;;5012332;28;1174;-69
2022/09/09 12:36:00;;;;;;;;;;;21.90;68.80;;;;;;5032402;28;1197;-68
2022/09/09 12:38:32;;;;;;;;;;;21.90;68.90;;;;;;5013020;28;1154;-68
2022/09/09 12:40:58;;;;;;;;;;;21.90;68.80;;;;;;4998617;28;1347;-67
2022/09/09 12:43:25;;;;;;;;;;;21.90;68.80;;;;;;5015089;28;1256;-67
2022/09/09 12:45:56;;;;;;;;;;;21.90;68.80;;;;;;5014724;28;1193;-69
2022/09/09 12:48:21;;;;;;;;;;;21.90;69.70;;;;;;5013476;28;1297;-70
2022/09/09 12:50:51;;;;;;;;;;;21.90;68.90;;;;;;4996421;28;1903;-69
2022/09/09 12:53:25;;;;;;;;;;;21.90;68.90;;;;;;4999235;28;1565;-68
2022/09/09 12:55:55;;;;;;;;;;;21.90;68.90;;;;;;4999336;28;1255;-69
2022/09/09 12:58:20;;;;;;;;;;;21.90;68.90;;;;;;5014792;28;1511;-68
2022/09/09 13:00:51;;;;;;;;;;;21.90;68.90;;;;;;4997538;28;1206;-69
2022/09/09 13:03:17;;;;;;;;;;;22.00;68.90;;;;;;5015049;28;1287;-69
2022/09/09 13:05:43;;;;;;;;;;;21.90;68.90;;;;;;5015195;28;771;-68
2022/09/09 13:08:10;;;;;;;;;;;21.90;68.80;;;;;;5032703;28;820;-67
2022/09/09 13:10:38;;;;;;;;;;;21.90;68.80;;;;;;5014897;28;1969;-68
2022/09/09 13:13:04;;;;;;;;;;;22.00;68.90;;;;;;4998786;28;1156;-69
2022/09/09 13:15:30;;;;;;;;;;;21.90;68.90;;;;;;5015029;28;1204;-67
2022/09/09 13:17:57;;;;;;;;;;;21.90;69.80;;;;;;4998781;28;1168;-68
2022/09/09 13:20:22;;;;;;;;;;;22.00;69.00;;;;;;4998278;28;1264;-67
2022/09/09 13:22:48;;;;;;;;;;;21.90;68.90;;;;;;4998363;28;1089;-68
2022/09/09 13:25:18;;;;;;;;;;;22.00;69.00;;;;;;5015004;28;901;-67
2022/09/09 13:28:03;;;;;;;;;;;22.00;69.10;;;;;;5025630;28;1139;-68
2022/09/09 13:30:33;;;;;;;;;;;21.90;69.00;;;;;;5017583;28;1894;-68
2022/09/09 13:33:11;;;;;;;;;;;22.00;69.10;;;;;;5027791;28;1128;-68
2022/09/09 13:35:54;;;;;;;;;;;22.00;69.00;;;;;;5012701;28;1030;-68
2022/09/09 13:38:21;;;;;;;;;;;22.00;69.10;;;;;;5011071;28;1354;-69
2022/09/09 13:41:05;;;;;;;;;;;21.90;69.00;;;;;;5011266;28;1233;-68
2022/09/09 13:43:31;;;;;;;;;;;21.90;69.00;;;;;;5011402;28;857;-68
2022/09/09 13:45:58;;;;;;;;;;;22.00;69.00;;;;;;5011751;28;816;-68
2022/09/09 13:48:24;;;;;;;;;;;21.90;69.00;;;;;;5001828;28;1193;-67
2022/09/09 13:50:59;;;;;;;;;;;22.00;69.10;;;;;;5034246;28;1963;-68
2022/09/09 13:53:25;;;;;;;;;;;21.90;69.00;;;;;;5034055;28;1269;-68
2022/09/09 13:55:51;;;;;;;;;;;22.00;69.00;;;;;;5034615;28;836;-67
2022/09/09 13:58:18;;;;;;;;;;;22.00;69.10;;;;;;5034156;28;1045;-68
2022/09/09 14:00:44;;;;;;;;;;;21.90;69.00;;;;;;5042254;28;1920;-68
2022/09/09 14:03:10;;;;;;;;;;;22.00;69.10;;;;;;5014816;28;1792;-67
2022/09/09 14:05:35;;;;;;;;;;;22.00;69.10;;;;;;5018484;28;1241;-68
2022/09/09 14:08:01;;;;;;;;;;;21.90;69.00;;;;;;5014039;28;1300;-68
2022/09/09 14:10:26;;;;;;;;;;;22.00;69.10;;;;;;5013384;28;1899;-68
2022/09/09 14:12:52;;;;;;;;;;;21.90;69.00;;;;;;5016261;28;1272;-68
2022/09/09 14:15:18;;;;;;;;;;;22.00;69.10;;;;;;5017706;28;1300;-68
2022/09/09 14:17:44;;;;;;;;;;;22.00;69.10;;;;;;5018009;28;2147;-68
2022/09/09 14:20:11;;;;;;;;;;;22.00;69.00;;;;;;5009321;28;1249;-68
2022/09/09 14:22:37;;;;;;;;;;;22.00;69.10;;;;;;5000731;28;1300;-68
2022/09/09 14:25:02;;;;;;;;;;;22.00;69.00;;;;;;5017698;28;1112;-68
2022/09/09 14:27:28;;;;;;;;;;;21.90;68.90;;;;;;5035636;28;1136;-68
2022/09/09 14:29:54;;;;;;;;;;;22.00;69.00;;;;;;5034693;28;1894;-69
2022/09/09 14:32:20;;;;;;;;;;;21.90;68.90;;;;;;5034127;28;1209;-68
2022/09/09 14:34:45;;;;;;;;;;;21.90;68.90;;;;;;5017181;28;1183;-68
2022/09/09 14:37:11;;;;;;;;;;;21.90;68.90;;;;;;5035245;28;1131;-68
2022/09/09 14:39:36;;;;;;;;;;;21.90;68.90;;;;;;5033777;28;911;-69
2022/09/09 14:42:02;;;;;;;;;;;22.00;69.00;;;;;;5016378;28;1269;-67